sensor_id;sensor_type;location;lat;lon;timestamp;P1;durP1;ratioP1;P2;durP2;ratioP2
42096;SDS011;27754;45.414;11.084;2023-03-11T00:00:10;6.88;;;2.25;;
42096;SDS011;27754;45.414;11.084;2023-03-11T00:02:39;8.77;;;3.05;;
42096;SDS011;27754;45.414;11.084;2023-03-11T00:05:06;5.20;;;2.58;;
42096;SDS011;27754;45.414;11.084;2023-03-11T00:07:34;9.13;;;2.40;;
42096;SDS011;27754;45.414;11.084;2023-03-11T00:10:03;5.50;;;2.08;;
42096;SDS011;27754;45.414;11.084;2023-03-11T00:12:30;6.50;;;1.92;;
42096;SDS011;27754;45.414;11.084;2023-03-11T00:14:57;6.38;;;2.30;;
42096;SDS011;27754;45.414;11.084;2023-03-11T00:17:24;6.25;;;2.10;;
42096;SDS011;27754;45.414;11.084;2023-03-11T00:19:51;5.82;;;1.80;;
42096;SDS011;27754;45.414;11.084;2023-03-11T00:22:17;4.75;;;2.08;;
42096;SDS011;27754;45.414;11.084;2023-03-11T00:24:44;6.53;;;2.35;;
42096;SDS011;27754;45.414;11.084;2023-03-11T00:27:11;6.10;;;1.70;;
42096;SDS011;27754;45.414;11.084;2023-03-11T00:29:39;6.53;;;1.60;;
42096;SDS011;27754;45.414;11.084;2023-03-11T00:32:06;4.38;;;1.80;;
42096;SDS011;27754;45.414;11.084;2023-03-11T00:34:35;5.00;;;1.70;;
42096;SDS011;27754;45.414;11.084;2023-03-11T00:37:02;5.25;;;1.65;;
42096;SDS011;27754;45.414;11.084;2023-03-11T00:39:29;3.28;;;1.80;;
42096;SDS011;27754;45.414;11.084;2023-03-11T00:41:56;8.23;;;2.05;;
42096;SDS011;27754;45.414;11.084;2023-03-11T00:44:23;4.30;;;1.50;;
42096;SDS011;27754;45.414;11.084;2023-03-11T00:46:50;3.38;;;1.50;;
42096;SDS011;27754;45.414;11.084;2023-03-11T00:49:17;3.22;;;1.35;;
42096;SDS011;27754;45.414;11.084;2023-03-11T00:51:44;13.13;;;1.95;;
42096;SDS011;27754;45.414;11.084;2023-03-11T00:54:11;4.28;;;1.75;;
42096;SDS011;27754;45.414;11.084;2023-03-11T00:56:39;5.82;;;1.60;;
42096;SDS011;27754;45.414;11.084;2023-03-11T00:59:07;4.05;;;1.30;;
42096;SDS011;27754;45.414;11.084;2023-03-11T01:01:34;2.70;;;1.25;;
42096;SDS011;27754;45.414;11.084;2023-03-11T01:04:01;2.40;;;1.58;;
42096;SDS011;27754;45.414;11.084;2023-03-11T01:06:28;3.28;;;1.15;;
42096;SDS011;27754;45.414;11.084;2023-03-11T01:09:09;3.28;;;1.40;;
42096;SDS011;27754;45.414;11.084;2023-03-11T01:11:36;2.85;;;1.35;;
42096;SDS011;27754;45.414;11.084;2023-03-11T01:14:03;2.63;;;1.45;;
42096;SDS011;27754;45.414;11.084;2023-03-11T01:16:30;4.03;;;1.30;;
42096;SDS011;27754;45.414;11.084;2023-03-11T01:18:57;3.63;;;1.40;;
42096;SDS011;27754;45.414;11.084;2023-03-11T01:21:25;4.95;;;1.50;;
42096;SDS011;27754;45.414;11.084;2023-03-11T01:23:52;3.58;;;1.25;;
42096;SDS011;27754;45.414;11.084;2023-03-11T01:26:19;4.22;;;1.40;;
42096;SDS011;27754;45.414;11.084;2023-03-11T01:28:45;3.15;;;1.45;;
42096;SDS011;27754;45.414;11.084;2023-03-11T01:31:12;4.80;;;1.42;;
42096;SDS011;27754;45.414;11.084;2023-03-11T01:33:39;4.97;;;2.00;;
42096;SDS011;27754;45.414;11.084;2023-03-11T01:36:07;6.70;;;1.70;;
42096;SDS011;27754;45.414;11.084;2023-03-11T01:38:34;4.88;;;2.20;;
42096;SDS011;27754;45.414;11.084;2023-03-11T01:41:01;2.58;;;1.33;;
42096;SDS011;27754;45.414;11.084;2023-03-11T01:43:39;6.43;;;2.15;;
42096;SDS011;27754;45.414;11.084;2023-03-11T01:48:54;7.18;;;1.60;;
42096;SDS011;27754;45.414;11.084;2023-03-11T01:51:29;2.50;;;1.58;;
42096;SDS011;27754;45.414;11.084;2023-03-11T01:54:04;2.20;;;1.30;;
42096;SDS011;27754;45.414;11.084;2023-03-11T01:56:36;2.83;;;1.55;;
42096;SDS011;27754;45.414;11.084;2023-03-11T01:59:05;5.55;;;1.65;;
42096;SDS011;27754;45.414;11.084;2023-03-11T02:01:33;2.47;;;1.35;;
42096;SDS011;27754;45.414;11.084;2023-03-11T02:04:07;6.75;;;2.00;;
42096;SDS011;27754;45.414;11.084;2023-03-11T02:06:34;3.83;;;1.65;;
42096;SDS011;27754;45.414;11.084;2023-03-11T02:09:01;3.55;;;1.30;;
42096;SDS011;27754;45.414;11.084;2023-03-11T02:11:29;3.53;;;1.73;;
42096;SDS011;27754;45.414;11.084;2023-03-11T02:14:00;5.82;;;1.83;;
42096;SDS011;27754;45.414;11.084;2023-03-11T02:16:30;3.92;;;1.63;;
42096;SDS011;27754;45.414;11.084;2023-03-11T02:18:57;4.68;;;1.50;;
42096;SDS011;27754;45.414;11.084;2023-03-11T02:21:31;3.42;;;1.60;;
42096;SDS011;27754;45.414;11.084;2023-03-11T02:24:07;2.45;;;1.33;;
42096;SDS011;27754;45.414;11.084;2023-03-11T02:29:17;6.05;;;1.60;;
42096;SDS011;27754;45.414;11.084;2023-03-11T02:31:46;4.78;;;1.67;;
42096;SDS011;27754;45.414;11.084;2023-03-11T02:34:23;4.70;;;1.65;;
42096;SDS011;27754;45.414;11.084;2023-03-11T02:36:52;3.90;;;1.50;;
42096;SDS011;27754;45.414;11.084;2023-03-11T02:41:57;3.58;;;1.75;;
42096;SDS011;27754;45.414;11.084;2023-03-11T02:44:26;2.42;;;1.45;;
42096;SDS011;27754;45.414;11.084;2023-03-11T02:46:52;3.95;;;1.77;;
42096;SDS011;27754;45.414;11.084;2023-03-11T02:49:21;5.47;;;1.98;;
42096;SDS011;27754;45.414;11.084;2023-03-11T02:51:48;5.00;;;2.05;;
42096;SDS011;27754;45.414;11.084;2023-03-11T02:54:15;5.18;;;1.92;;
42096;SDS011;27754;45.414;11.084;2023-03-11T02:56:42;7.00;;;2.28;;
42096;SDS011;27754;45.414;11.084;2023-03-11T02:59:09;5.40;;;2.10;;
42096;SDS011;27754;45.414;11.084;2023-03-11T03:01:36;4.65;;;2.15;;
42096;SDS011;27754;45.414;11.084;2023-03-11T03:04:03;5.20;;;1.98;;
42096;SDS011;27754;45.414;11.084;2023-03-11T03:06:31;4.35;;;2.25;;
42096;SDS011;27754;45.414;11.084;2023-03-11T03:08:58;4.53;;;2.05;;
42096;SDS011;27754;45.414;11.084;2023-03-11T03:11:26;4.05;;;1.95;;
42096;SDS011;27754;45.414;11.084;2023-03-11T03:13:53;6.63;;;2.40;;
42096;SDS011;27754;45.414;11.084;2023-03-11T03:16:20;4.63;;;2.17;;
42096;SDS011;27754;45.414;11.084;2023-03-11T03:18:47;7.88;;;2.50;;
42096;SDS011;27754;45.414;11.084;2023-03-11T03:21:14;3.85;;;1.92;;
42096;SDS011;27754;45.414;11.084;2023-03-11T03:23:41;5.50;;;2.10;;
42096;SDS011;27754;45.414;11.084;2023-03-11T03:26:10;3.75;;;2.15;;
42096;SDS011;27754;45.414;11.084;2023-03-11T03:28:40;4.97;;;2.22;;
42096;SDS011;27754;45.414;11.084;2023-03-11T03:31:08;7.80;;;3.20;;
42096;SDS011;27754;45.414;11.084;2023-03-11T03:33:38;5.68;;;2.67;;
42096;SDS011;27754;45.414;11.084;2023-03-11T03:36:06;5.72;;;2.53;;
42096;SDS011;27754;45.414;11.084;2023-03-11T03:38:41;5.60;;;2.03;;
42096;SDS011;27754;45.414;11.084;2023-03-11T03:41:08;7.15;;;2.10;;
42096;SDS011;27754;45.414;11.084;2023-03-11T03:43:38;5.70;;;2.75;;
42096;SDS011;27754;45.414;11.084;2023-03-11T03:46:06;5.78;;;2.83;;
42096;SDS011;27754;45.414;11.084;2023-03-11T03:48:38;6.32;;;2.92;;
42096;SDS011;27754;45.414;11.084;2023-03-11T03:51:08;7.20;;;2.80;;
42096;SDS011;27754;45.414;11.084;2023-03-11T03:53:42;6.25;;;2.55;;
42096;SDS011;27754;45.414;11.084;2023-03-11T03:56:10;6.20;;;2.83;;
42096;SDS011;27754;45.414;11.084;2023-03-11T03:58:38;4.13;;;2.10;;
42096;SDS011;27754;45.414;11.084;2023-03-11T04:01:07;3.95;;;2.53;;
42096;SDS011;27754;45.414;11.084;2023-03-11T04:03:35;6.82;;;2.70;;
42096;SDS011;27754;45.414;11.084;2023-03-11T04:06:08;6.60;;;2.40;;
42096;SDS011;27754;45.414;11.084;2023-03-11T04:08:46;5.78;;;2.50;;
42096;SDS011;27754;45.414;11.084;2023-03-11T04:11:13;4.53;;;3.08;;
42096;SDS011;27754;45.414;11.084;2023-03-11T04:13:40;6.40;;;2.85;;
42096;SDS011;27754;45.414;11.084;2023-03-11T04:16:13;7.28;;;2.60;;
42096;SDS011;27754;45.414;11.084;2023-03-11T04:18:42;8.57;;;2.80;;
42096;SDS011;27754;45.414;11.084;2023-03-11T04:21:09;8.48;;;3.40;;
42096;SDS011;27754;45.414;11.084;2023-03-11T04:23:36;7.03;;;3.13;;
42096;SDS011;27754;45.414;11.084;2023-03-11T04:26:05;8.18;;;2.40;;
42096;SDS011;27754;45.414;11.084;2023-03-11T04:28:33;5.85;;;2.88;;
42096;SDS011;27754;45.414;11.084;2023-03-11T04:31:01;12.15;;;2.80;;
42096;SDS011;27754;45.414;11.084;2023-03-11T04:33:30;5.35;;;2.90;;
42096;SDS011;27754;45.414;11.084;2023-03-11T04:35:57;5.63;;;2.97;;
42096;SDS011;27754;45.414;11.084;2023-03-11T04:38:24;8.00;;;3.40;;
42096;SDS011;27754;45.414;11.084;2023-03-11T04:40:51;7.80;;;3.00;;
42096;SDS011;27754;45.414;11.084;2023-03-11T04:43:18;5.07;;;3.42;;
42096;SDS011;27754;45.414;11.084;2023-03-11T04:45:45;7.43;;;3.25;;
42096;SDS011;27754;45.414;11.084;2023-03-11T04:48:15;6.60;;;3.55;;
42096;SDS011;27754;45.414;11.084;2023-03-11T04:50:43;7.32;;;2.95;;
42096;SDS011;27754;45.414;11.084;2023-03-11T04:53:09;7.10;;;3.28;;
42096;SDS011;27754;45.414;11.084;2023-03-11T04:55:37;7.60;;;3.42;;
42096;SDS011;27754;45.414;11.084;2023-03-11T04:58:05;8.30;;;3.22;;
42096;SDS011;27754;45.414;11.084;2023-03-11T05:00:34;8.02;;;3.38;;
42096;SDS011;27754;45.414;11.084;2023-03-11T05:03:05;5.95;;;2.70;;
42096;SDS011;27754;45.414;11.084;2023-03-11T05:05:32;7.30;;;3.38;;
42096;SDS011;27754;45.414;11.084;2023-03-11T05:08:01;6.35;;;3.13;;
42096;SDS011;27754;45.414;11.084;2023-03-11T05:10:29;8.07;;;3.33;;
42096;SDS011;27754;45.414;11.084;2023-03-11T05:12:59;10.18;;;3.80;;
42096;SDS011;27754;45.414;11.084;2023-03-11T05:15:30;10.15;;;3.78;;
42096;SDS011;27754;45.414;11.084;2023-03-11T05:18:00;11.50;;;4.28;;
42096;SDS011;27754;45.414;11.084;2023-03-11T05:20:28;14.88;;;4.88;;
42096;SDS011;27754;45.414;11.084;2023-03-11T05:22:55;89.25;;;14.48;;
42096;SDS011;27754;45.414;11.084;2023-03-11T05:25:22;31.60;;;6.07;;
42096;SDS011;27754;45.414;11.084;2023-03-11T05:27:49;36.63;;;6.00;;
42096;SDS011;27754;45.414;11.084;2023-03-11T05:30:17;15.30;;;4.05;;
42096;SDS011;27754;45.414;11.084;2023-03-11T05:32:45;10.32;;;3.55;;
42096;SDS011;27754;45.414;11.084;2023-03-11T05:35:12;13.20;;;3.67;;
42096;SDS011;27754;45.414;11.084;2023-03-11T05:37:39;11.07;;;3.78;;
42096;SDS011;27754;45.414;11.084;2023-03-11T05:40:08;8.90;;;3.67;;
42096;SDS011;27754;45.414;11.084;2023-03-11T05:42:36;10.43;;;3.97;;
42096;SDS011;27754;45.414;11.084;2023-03-11T05:45:06;7.32;;;3.63;;
42096;SDS011;27754;45.414;11.084;2023-03-11T05:47:36;9.30;;;3.42;;
42096;SDS011;27754;45.414;11.084;2023-03-11T05:50:04;8.07;;;3.08;;
42096;SDS011;27754;45.414;11.084;2023-03-11T05:52:31;7.53;;;2.80;;
42096;SDS011;27754;45.414;11.084;2023-03-11T05:54:59;8.25;;;2.88;;
42096;SDS011;27754;45.414;11.084;2023-03-11T05:57:28;6.13;;;2.90;;
42096;SDS011;27754;45.414;11.084;2023-03-11T05:59:56;12.85;;;3.50;;
42096;SDS011;27754;45.414;11.084;2023-03-11T06:02:23;6.95;;;3.50;;
42096;SDS011;27754;45.414;11.084;2023-03-11T06:04:50;5.50;;;3.33;;
42096;SDS011;27754;45.414;11.084;2023-03-11T06:07:17;7.30;;;3.40;;
42096;SDS011;27754;45.414;11.084;2023-03-11T06:09:48;7.45;;;3.42;;
42096;SDS011;27754;45.414;11.084;2023-03-11T06:12:17;9.50;;;4.55;;
42096;SDS011;27754;45.414;11.084;2023-03-11T06:14:54;14.73;;;4.80;;
42096;SDS011;27754;45.414;11.084;2023-03-11T06:17:21;7.82;;;4.63;;
42096;SDS011;27754;45.414;11.084;2023-03-11T06:19:48;9.15;;;3.55;;
42096;SDS011;27754;45.414;11.084;2023-03-11T06:22:15;9.07;;;3.90;;
42096;SDS011;27754;45.414;11.084;2023-03-11T06:24:42;8.20;;;4.40;;
42096;SDS011;27754;45.414;11.084;2023-03-11T06:27:10;9.38;;;3.80;;
42096;SDS011;27754;45.414;11.084;2023-03-11T06:29:39;8.55;;;3.95;;
42096;SDS011;27754;45.414;11.084;2023-03-11T06:32:07;9.77;;;3.92;;
42096;SDS011;27754;45.414;11.084;2023-03-11T06:34:35;10.05;;;4.05;;
42096;SDS011;27754;45.414;11.084;2023-03-11T06:37:03;9.10;;;4.18;;
42096;SDS011;27754;45.414;11.084;2023-03-11T06:39:29;11.27;;;4.50;;
42096;SDS011;27754;45.414;11.084;2023-03-11T06:41:56;9.15;;;4.53;;
42096;SDS011;27754;45.414;11.084;2023-03-11T06:44:27;8.20;;;3.88;;
42096;SDS011;27754;45.414;11.084;2023-03-11T06:46:54;14.20;;;4.68;;
42096;SDS011;27754;45.414;11.084;2023-03-11T06:49:20;16.90;;;4.60;;
42096;SDS011;27754;45.414;11.084;2023-03-11T06:51:48;9.60;;;4.45;;
42096;SDS011;27754;45.414;11.084;2023-03-11T06:54:14;10.13;;;4.15;;
42096;SDS011;27754;45.414;11.084;2023-03-11T06:56:42;15.85;;;4.95;;
42096;SDS011;27754;45.414;11.084;2023-03-11T06:59:09;14.95;;;4.68;;
42096;SDS011;27754;45.414;11.084;2023-03-11T07:01:36;16.98;;;4.53;;
42096;SDS011;27754;45.414;11.084;2023-03-11T07:04:05;25.95;;;6.13;;
42096;SDS011;27754;45.414;11.084;2023-03-11T07:06:34;27.33;;;4.60;;
42096;SDS011;27754;45.414;11.084;2023-03-11T07:09:09;27.05;;;5.35;;
42096;SDS011;27754;45.414;11.084;2023-03-11T07:11:40;22.13;;;6.40;;
42096;SDS011;27754;45.414;11.084;2023-03-11T07:14:12;18.98;;;4.63;;
42096;SDS011;27754;45.414;11.084;2023-03-11T07:16:43;17.50;;;4.80;;
42096;SDS011;27754;45.414;11.084;2023-03-11T07:19:34;15.65;;;5.00;;
42096;SDS011;27754;45.414;11.084;2023-03-11T07:22:00;23.30;;;5.10;;
42096;SDS011;27754;45.414;11.084;2023-03-11T07:24:27;14.48;;;5.30;;
42096;SDS011;27754;45.414;11.084;2023-03-11T07:26:55;14.48;;;4.53;;
42096;SDS011;27754;45.414;11.084;2023-03-11T07:29:22;17.73;;;4.35;;
42096;SDS011;27754;45.414;11.084;2023-03-11T07:31:48;16.98;;;5.00;;
42096;SDS011;27754;45.414;11.084;2023-03-11T07:34:15;25.38;;;5.68;;
42096;SDS011;27754;45.414;11.084;2023-03-11T07:36:42;17.30;;;4.80;;
42096;SDS011;27754;45.414;11.084;2023-03-11T07:39:12;11.73;;;4.53;;
42096;SDS011;27754;45.414;11.084;2023-03-11T07:41:41;7.97;;;4.88;;
42096;SDS011;27754;45.414;11.084;2023-03-11T07:44:10;9.10;;;4.38;;
42096;SDS011;27754;45.414;11.084;2023-03-11T07:46:38;16.98;;;6.13;;
42096;SDS011;27754;45.414;11.084;2023-03-11T07:49:06;12.52;;;5.22;;
42096;SDS011;27754;45.414;11.084;2023-03-11T07:51:33;11.57;;;5.00;;
42096;SDS011;27754;45.414;11.084;2023-03-11T07:54:01;11.88;;;6.25;;
42096;SDS011;27754;45.414;11.084;2023-03-11T07:56:31;13.15;;;6.18;;
42096;SDS011;27754;45.414;11.084;2023-03-11T07:58:59;13.10;;;7.00;;
42096;SDS011;27754;45.414;11.084;2023-03-11T08:01:28;14.18;;;6.60;;
42096;SDS011;27754;45.414;11.084;2023-03-11T08:04:02;12.13;;;7.07;;
42096;SDS011;27754;45.414;11.084;2023-03-11T08:06:31;24.23;;;6.55;;
42096;SDS011;27754;45.414;11.084;2023-03-11T08:08:59;12.63;;;6.60;;
42096;SDS011;27754;45.414;11.084;2023-03-11T08:11:28;22.23;;;7.32;;
42096;SDS011;27754;45.414;11.084;2023-03-11T08:13:56;12.68;;;6.57;;
42096;SDS011;27754;45.414;11.084;2023-03-11T08:16:23;14.18;;;6.88;;
42096;SDS011;27754;45.414;11.084;2023-03-11T08:18:51;12.90;;;7.85;;
42096;SDS011;27754;45.414;11.084;2023-03-11T08:21:20;15.25;;;6.60;;
42096;SDS011;27754;45.414;11.084;2023-03-11T08:23:49;13.00;;;7.25;;
42096;SDS011;27754;45.414;11.084;2023-03-11T08:26:18;14.77;;;7.30;;
42096;SDS011;27754;45.414;11.084;2023-03-11T08:28:47;14.10;;;7.82;;
42096;SDS011;27754;45.414;11.084;2023-03-11T08:31:19;14.02;;;8.63;;
42096;SDS011;27754;45.414;11.084;2023-03-11T08:33:51;16.48;;;8.60;;
42096;SDS011;27754;45.414;11.084;2023-03-11T08:36:23;14.55;;;8.27;;
42096;SDS011;27754;45.414;11.084;2023-03-11T08:38:50;14.88;;;8.35;;
42096;SDS011;27754;45.414;11.084;2023-03-11T08:41:17;17.10;;;8.05;;
42096;SDS011;27754;45.414;11.084;2023-03-11T08:43:44;19.42;;;8.48;;
42096;SDS011;27754;45.414;11.084;2023-03-11T08:46:24;17.45;;;8.52;;
42096;SDS011;27754;45.414;11.084;2023-03-11T08:48:51;17.10;;;10.60;;
42096;SDS011;27754;45.414;11.084;2023-03-11T08:51:19;21.55;;;10.85;;
42096;SDS011;27754;45.414;11.084;2023-03-11T08:53:46;22.33;;;13.05;;
42096;SDS011;27754;45.414;11.084;2023-03-11T08:56:13;27.05;;;12.52;;
42096;SDS011;27754;45.414;11.084;2023-03-11T08:58:40;25.10;;;14.50;;
42096;SDS011;27754;45.414;11.084;2023-03-11T09:01:09;27.90;;;15.80;;
42096;SDS011;27754;45.414;11.084;2023-03-11T09:03:37;26.17;;;14.95;;
42096;SDS011;27754;45.414;11.084;2023-03-11T09:06:05;27.02;;;14.60;;
42096;SDS011;27754;45.414;11.084;2023-03-11T09:08:41;30.65;;;14.18;;
42096;SDS011;27754;45.414;11.084;2023-03-11T09:11:08;24.42;;;14.02;;
42096;SDS011;27754;45.414;11.084;2023-03-11T09:13:35;22.35;;;14.60;;
42096;SDS011;27754;45.414;11.084;2023-03-11T09:16:04;24.98;;;15.18;;
42096;SDS011;27754;45.414;11.084;2023-03-11T09:18:32;27.27;;;15.88;;
42096;SDS011;27754;45.414;11.084;2023-03-11T09:20:59;29.88;;;16.02;;
42096;SDS011;27754;45.414;11.084;2023-03-11T09:23:26;26.98;;;16.25;;
42096;SDS011;27754;45.414;11.084;2023-03-11T09:25:53;27.40;;;16.33;;
42096;SDS011;27754;45.414;11.084;2023-03-11T09:28:20;25.65;;;16.50;;
42096;SDS011;27754;45.414;11.084;2023-03-11T09:30:47;33.22;;;17.17;;
42096;SDS011;27754;45.414;11.084;2023-03-11T09:33:14;25.15;;;16.55;;
42096;SDS011;27754;45.414;11.084;2023-03-11T09:35:41;33.08;;;18.83;;
42096;SDS011;27754;45.414;11.084;2023-03-11T09:38:08;29.98;;;16.70;;
42096;SDS011;27754;45.414;11.084;2023-03-11T09:40:44;29.80;;;17.70;;
42096;SDS011;27754;45.414;11.084;2023-03-11T09:46:01;26.02;;;15.35;;
42096;SDS011;27754;45.414;11.084;2023-03-11T09:48:36;27.65;;;17.08;;
42096;SDS011;27754;45.414;11.084;2023-03-11T09:51:27;27.65;;;16.92;;
42096;SDS011;27754;45.414;11.084;2023-03-11T09:54:05;28.65;;;16.15;;
42096;SDS011;27754;45.414;11.084;2023-03-11T09:56:36;27.85;;;16.55;;
42096;SDS011;27754;45.414;11.084;2023-03-11T09:59:08;32.47;;;17.10;;
42096;SDS011;27754;45.414;11.084;2023-03-11T10:01:46;27.25;;;16.67;;
42096;SDS011;27754;45.414;11.084;2023-03-11T10:06:52;30.17;;;17.92;;
42096;SDS011;27754;45.414;11.084;2023-03-11T10:10:02;27.73;;;17.55;;
42096;SDS011;27754;45.414;11.084;2023-03-11T10:23:36;26.70;;;16.80;;
42096;SDS011;27754;45.414;11.084;2023-03-11T10:26:22;30.40;;;18.70;;
42096;SDS011;27754;45.414;11.084;2023-03-11T10:29:06;24.30;;;15.80;;
42096;SDS011;27754;45.414;11.084;2023-03-11T10:37:08;28.45;;;17.70;;
42096;SDS011;27754;45.414;11.084;2023-03-11T10:39:49;24.42;;;16.33;;
42096;SDS011;27754;45.414;11.084;2023-03-11T10:42:22;27.85;;;16.48;;
42096;SDS011;27754;45.414;11.084;2023-03-11T10:47:21;28.73;;;15.77;;
42096;SDS011;27754;45.414;11.084;2023-03-11T10:49:51;22.13;;;15.20;;
42096;SDS011;27754;45.414;11.084;2023-03-11T10:52:18;25.00;;;14.60;;
42096;SDS011;27754;45.414;11.084;2023-03-11T10:54:46;25.50;;;16.08;;
42096;SDS011;27754;45.414;11.084;2023-03-11T10:57:25;26.35;;;15.82;;
42096;SDS011;27754;45.414;11.084;2023-03-11T11:00:01;25.15;;;15.63;;
42096;SDS011;27754;45.414;11.084;2023-03-11T11:03:19;25.10;;;15.10;;
42096;SDS011;27754;45.414;11.084;2023-03-11T11:05:44;23.00;;;14.30;;
42096;SDS011;27754;45.414;11.084;2023-03-11T11:08:24;26.27;;;13.95;;
42096;SDS011;27754;45.414;11.084;2023-03-11T11:10:51;27.02;;;15.10;;
42096;SDS011;27754;45.414;11.084;2023-03-11T11:13:24;22.45;;;14.70;;
42096;SDS011;27754;45.414;11.084;2023-03-11T11:18:47;18.23;;;13.45;;
42096;SDS011;27754;45.414;11.084;2023-03-11T11:21:29;25.90;;;14.13;;
42096;SDS011;27754;45.414;11.084;2023-03-11T11:24:12;23.00;;;14.77;;
42096;SDS011;27754;45.414;11.084;2023-03-11T11:26:41;25.35;;;13.35;;
42096;SDS011;27754;45.414;11.084;2023-03-11T11:31:38;27.38;;;13.90;;
42096;SDS011;27754;45.414;11.084;2023-03-11T11:34:30;18.80;;;12.73;;
42096;SDS011;27754;45.414;11.084;2023-03-11T11:36:58;26.67;;;13.85;;
42096;SDS011;27754;45.414;11.084;2023-03-11T11:39:31;22.10;;;13.45;;
42096;SDS011;27754;45.414;11.084;2023-03-11T11:42:05;23.67;;;14.40;;
42096;SDS011;27754;45.414;11.084;2023-03-11T11:44:36;22.45;;;14.27;;
42096;SDS011;27754;45.414;11.084;2023-03-11T11:47:06;34.72;;;14.13;;
42096;SDS011;27754;45.414;11.084;2023-03-11T11:49:43;22.27;;;13.52;;
42096;SDS011;27754;45.414;11.084;2023-03-11T11:52:19;21.42;;;14.18;;
42096;SDS011;27754;45.414;11.084;2023-03-11T11:55:02;22.13;;;13.43;;
42096;SDS011;27754;45.414;11.084;2023-03-11T11:57:33;25.63;;;15.93;;
42096;SDS011;27754;45.414;11.084;2023-03-11T12:00:00;22.95;;;14.32;;
42096;SDS011;27754;45.414;11.084;2023-03-11T12:02:44;27.05;;;14.82;;
42096;SDS011;27754;45.414;11.084;2023-03-11T12:05:25;24.23;;;14.10;;
42096;SDS011;27754;45.414;11.084;2023-03-11T12:11:00;24.73;;;14.20;;
42096;SDS011;27754;45.414;11.084;2023-03-11T12:16:42;23.92;;;13.77;;
42096;SDS011;27754;45.414;11.084;2023-03-11T12:27:03;22.63;;;14.68;;
42096;SDS011;27754;45.414;11.084;2023-03-11T12:29:39;21.55;;;13.45;;
42096;SDS011;27754;45.414;11.084;2023-03-11T12:32:16;25.42;;;14.35;;
42096;SDS011;27754;45.414;11.084;2023-03-11T12:35:26;25.25;;;14.80;;
42096;SDS011;27754;45.414;11.084;2023-03-11T12:40:56;23.50;;;14.77;;
42096;SDS011;27754;45.414;11.084;2023-03-11T12:48:32;21.13;;;13.30;;
42096;SDS011;27754;45.414;11.084;2023-03-11T12:51:01;21.92;;;14.15;;
42096;SDS011;27754;45.414;11.084;2023-03-11T12:59:13;25.33;;;14.50;;
42096;SDS011;27754;45.414;11.084;2023-03-11T13:04:55;24.15;;;13.82;;
42096;SDS011;27754;45.414;11.084;2023-03-11T13:10:32;18.83;;;12.35;;
42096;SDS011;27754;45.414;11.084;2023-03-11T13:13:20;19.33;;;12.40;;
42096;SDS011;27754;45.414;11.084;2023-03-11T13:18:41;19.40;;;13.48;;
42096;SDS011;27754;45.414;11.084;2023-03-11T13:21:43;22.70;;;11.75;;
42096;SDS011;27754;45.414;11.084;2023-03-11T13:41:00;18.40;;;11.68;;
42096;SDS011;27754;45.414;11.084;2023-03-11T13:43:28;21.65;;;11.63;;
42096;SDS011;27754;45.414;11.084;2023-03-11T13:46:13;19.00;;;11.70;;
42096;SDS011;27754;45.414;11.084;2023-03-11T13:49:05;20.05;;;11.18;;
42096;SDS011;27754;45.414;11.084;2023-03-11T13:51:43;17.98;;;11.27;;
42096;SDS011;27754;45.414;11.084;2023-03-11T13:56:47;18.92;;;11.07;;
42096;SDS011;27754;45.414;11.084;2023-03-11T14:04:42;19.98;;;12.90;;
42096;SDS011;27754;45.414;11.084;2023-03-11T14:07:25;22.20;;;12.75;;
42096;SDS011;27754;45.414;11.084;2023-03-11T14:10:16;19.08;;;12.15;;
42096;SDS011;27754;45.414;11.084;2023-03-11T14:12:44;20.65;;;11.95;;
42096;SDS011;27754;45.414;11.084;2023-03-11T14:15:22;18.05;;;12.45;;
42096;SDS011;27754;45.414;11.084;2023-03-11T14:17:52;22.25;;;12.45;;
42096;SDS011;27754;45.414;11.084;2023-03-11T14:20:20;26.73;;;12.82;;
42096;SDS011;27754;45.414;11.084;2023-03-11T14:22:51;22.42;;;12.45;;
42096;SDS011;27754;45.414;11.084;2023-03-11T14:25:27;22.95;;;13.32;;
42096;SDS011;27754;45.414;11.084;2023-03-11T14:27:57;24.90;;;12.23;;
42096;SDS011;27754;45.414;11.084;2023-03-11T14:30:27;20.65;;;14.10;;
42096;SDS011;27754;45.414;11.084;2023-03-11T14:32:57;23.33;;;13.65;;
42096;SDS011;27754;45.414;11.084;2023-03-11T14:35:30;26.38;;;14.02;;
42096;SDS011;27754;45.414;11.084;2023-03-11T14:37:59;26.05;;;14.63;;
42096;SDS011;27754;45.414;11.084;2023-03-11T14:40:33;24.05;;;13.95;;
42096;SDS011;27754;45.414;11.084;2023-03-11T14:43:07;27.67;;;15.15;;
42096;SDS011;27754;45.414;11.084;2023-03-11T14:45:36;24.92;;;14.45;;
42096;SDS011;27754;45.414;11.084;2023-03-11T14:48:13;22.17;;;13.80;;
42096;SDS011;27754;45.414;11.084;2023-03-11T14:50:51;23.08;;;13.30;;
42096;SDS011;27754;45.414;11.084;2023-03-11T14:55:57;23.27;;;14.48;;
42096;SDS011;27754;45.414;11.084;2023-03-11T15:04:17;22.77;;;14.20;;
42096;SDS011;27754;45.414;11.084;2023-03-11T15:06:58;25.58;;;14.85;;
42096;SDS011;27754;45.414;11.084;2023-03-11T15:09:25;23.33;;;13.70;;
42096;SDS011;27754;45.414;11.084;2023-03-11T15:11:58;29.83;;;15.20;;
42096;SDS011;27754;45.414;11.084;2023-03-11T15:17:08;19.65;;;13.07;;
42096;SDS011;27754;45.414;11.084;2023-03-11T15:19:59;26.05;;;13.95;;
42096;SDS011;27754;45.414;11.084;2023-03-11T15:22:30;22.50;;;12.90;;
42096;SDS011;27754;45.414;11.084;2023-03-11T15:25:13;21.98;;;12.52;;
42096;SDS011;27754;45.414;11.084;2023-03-11T15:27:42;25.95;;;14.18;;
42096;SDS011;27754;45.414;11.084;2023-03-11T15:30:17;24.08;;;12.93;;
42096;SDS011;27754;45.414;11.084;2023-03-11T15:35:13;21.92;;;13.05;;
42096;SDS011;27754;45.414;11.084;2023-03-11T15:38:09;23.25;;;14.25;;
42096;SDS011;27754;45.414;11.084;2023-03-11T15:40:52;24.98;;;14.30;;
42096;SDS011;27754;45.414;11.084;2023-03-11T15:43:28;23.20;;;13.85;;
42096;SDS011;27754;45.414;11.084;2023-03-11T15:45:59;26.55;;;14.82;;
42096;SDS011;27754;45.414;11.084;2023-03-11T15:48:27;24.67;;;13.65;;
42096;SDS011;27754;45.414;11.084;2023-03-11T15:50:56;27.75;;;14.48;;
42096;SDS011;27754;45.414;11.084;2023-03-11T15:53:24;23.27;;;14.73;;
42096;SDS011;27754;45.414;11.084;2023-03-11T15:55:53;20.77;;;13.10;;
42096;SDS011;27754;45.414;11.084;2023-03-11T15:58:32;21.27;;;12.40;;
42096;SDS011;27754;45.414;11.084;2023-03-11T16:00:59;26.23;;;13.85;;
42096;SDS011;27754;45.414;11.084;2023-03-11T16:03:26;25.65;;;13.15;;
42096;SDS011;27754;45.414;11.084;2023-03-11T16:05:56;26.85;;;13.63;;
42096;SDS011;27754;45.414;11.084;2023-03-11T16:08:23;22.13;;;13.65;;
42096;SDS011;27754;45.414;11.084;2023-03-11T16:10:50;22.88;;;14.02;;
42096;SDS011;27754;45.414;11.084;2023-03-11T16:13:17;27.20;;;13.85;;
42096;SDS011;27754;45.414;11.084;2023-03-11T16:15:44;25.83;;;12.85;;
42096;SDS011;27754;45.414;11.084;2023-03-11T16:18:12;25.23;;;14.27;;
42096;SDS011;27754;45.414;11.084;2023-03-11T16:20:46;24.23;;;13.88;;
42096;SDS011;27754;45.414;11.084;2023-03-11T16:23:21;32.63;;;14.63;;
42096;SDS011;27754;45.414;11.084;2023-03-11T16:25:52;26.90;;;13.27;;
42096;SDS011;27754;45.414;11.084;2023-03-11T16:28:24;25.27;;;14.40;;
42096;SDS011;27754;45.414;11.084;2023-03-11T16:30:52;22.13;;;13.35;;
42096;SDS011;27754;45.414;11.084;2023-03-11T16:33:19;22.80;;;13.48;;